Evansport, Ohio
Current Conditions -  °F | °C
As of 8:53 AM on Wednesday 28 Jan 2015 (Local Time) from KDFI Reporting Station
Haze Haze  
Wind Chill:   Ceiling: Unl
Heat Index:   Visibility: 5mi
Dew Point:   Wind: 0mph
Humidity: 87%   Direction: NA
Pressure: 30.38"   Gusts: NA
Location:  41.42°N, 84.39°W
Report Text: KDFI 281353Z AUTO 00000KT 5SM BR CLR M14/M16 A3038 RMK AO2 SLP301 T11441161
Loading
Personal Weather Stations






























Interactive Weather Map New forecast layout! Learn more

10-Day Weather Forecast

Advertisements
Track Severe Weather on mobile